Nearby METAR Reports

 

KGRB - Ashwaubenon, Wisconsin, USA
Distance from station: WSW 10mi, 16km
Updated: 08/22/2017 6:53pm
Partly cloudy
Partly cloudy
 Wind from NW
Wind: NW 6 mph , 9 km/h
Temperature: 68°F , 20°C
Dew Point: 55°F , 13°C
Humidity: 64%
Barometer: 29.90 inHg , 1012.5 hPa
Clouds: Partly cloudy
Visibility: 10 miles , 16 km
Cloud details: Partly cloudy 10000 ft
2017/08/22 23:53 KGRB 222353Z 31005KT 10SM SCT100 20/13 A2990 RMK AO2 SLP125 T02000133 10239 20200 53003
KOCQ - Oconto, Wisconsin, USA
Distance from station: N 24mi, 39km
Updated: 08/22/2017 7:15pm
Clear
Clear
 Wind from WNW
Wind: WNW 5 mph , 7 km/h
Temperature: 66°F , 19°C
Dew Point: 50°F , 10°C
Humidity: 56%
Barometer: 29.89 inHg , 1012.2 hPa
Clouds: Clear
Visibility: 10 miles , 16 km
2017/08/23 00:15 KOCQ 230015Z AUTO 30004KT 10SM CLR 19/10 A2989 RMK AO1 T01910101
KMTW - Manitowac Muni, Wisconsin, USA
Distance from station: SSE 31mi, 49km
Updated: 08/22/2017 6:56pm
Overcast
Overcast
 Wind from WNW
Wind: WNW 7 mph , 11 km/h
Temperature: 72°F , 22°C
Dew Point: 50°F , 10°C
Humidity: 47%
Barometer: 29.91 inHg , 1012.9 hPa
Clouds: Overcast
Visibility: 10 miles , 16 km
Cloud details: Overcast 7000 ft
2017/08/22 23:56 KMTW 222356Z AUTO 29006KT 10SM OVC070 22/10 A2991 RMK AO2 SLPNO T02170100 10233 20217 53007
 
KATW - Appleton/Outagam, Wisconsin, USA
Distance from station: WSW 33mi, 54km
Updated: 08/22/2017 6:45pm
Mostly cloudy
Mostly cloudy
 Wind from WNW
Wind: WNW 9 mph , 15 km/h
Temperature: 70°F , 21°C
Dew Point: 45°F , 7°C
Humidity: 40%
Barometer: 29.91 inHg , 1012.9 hPa
Clouds: Mostly cloudy
Visibility: 10 miles , 16 km
Cloud details: Partly cloudy 3000 ft
Mostly cloudy 6000 ft
2017/08/22 23:45 KATW 222345Z 30008KT 10SM SCT030 BKN060 21/07 A2991
KSUE - Sturgeon Bay, Wisconsin, USA
Distance from station: NE 34mi, 55km
Updated: 08/22/2017 6:56pm
Overcast
Overcast
 Wind from NW
Wind: NW 12 mph , 19 km/h
Temperature: 68°F , 20°C
Dew Point: 52°F , 11°C
Humidity: 56%
Barometer: 29.89 inHg , 1012.2 hPa
Clouds: Overcast
Visibility: 10 miles , 16 km
Cloud details: Few Clouds 5500 ft
Mostly cloudy 8000 ft
Overcast 9000 ft
2017/08/22 23:56 KSUE 222356Z AUTO 31010KT 10SM FEW055 BKN080 OVC090 20/11 A2989 RMK AO2 SLP137 6//// T02000111 10228 20200 53009
KEZS - Shawano Muni, Wisconsin, USA
Distance from station: WNW 36mi, 58km
Updated: 08/22/2017 7:15pm
Clear
Clear
 Wind from NW
Wind: NW 7 mph , 11 km/h
Temperature: 68°F , 20°C
Dew Point: 50°F , 10°C
Humidity: 53%
Barometer: 29.91 inHg , 1012.9 hPa
Clouds: Clear
Visibility: 10 miles , 16 km
2017/08/23 00:15 KEZS 230015Z AUTO 31006KT 10SM CLR 20/10 A2991 RMK AO2 T02000100
 
KCLI - Clintonville, Wisconsin, USA
Distance from station: W 40mi, 64km
Updated: 08/22/2017 7:15pm
Partly cloudy
Partly cloudy
 Wind from WNW
Wind: WNW 9 mph , 15 km/h
Temperature: 70°F , 21°C
Dew Point: 45°F , 7°C
Humidity: 40%
Barometer: 29.92 inHg , 1013.2 hPa
Clouds: Partly cloudy
Visibility: 10 miles , 16 km
Cloud details: Partly cloudy 6000 ft
Partly cloudy 9500 ft
2017/08/23 00:15 KCLI 230015Z AUTO 30008KT 10SM SCT060 SCT095 21/07 A2992 RMK AO2
KMNM - Menominee, Michigan, USA
Distance from station: NNE 44mi, 72km
Updated: 08/22/2017 6:56pm
Partly cloudy
Partly cloudy
 Wind from varies
Wind: varies 5 mph , 7 km/h
Temperature: 66°F , 19°C
Dew Point: 52°F , 11°C
Humidity: 60%
Barometer: 29.88 inHg , 1011.9 hPa
Clouds: Partly cloudy
Visibility: 10 miles , 16 km
Cloud details: Partly cloudy 10000 ft
2017/08/22 23:56 KMNM 222356Z AUTO VRB04KT 10SM SCT100 19/11 A2988 RMK AO2 SLP133 60000 T01940106 10228 20194 51009 $
KOSH - Oshkosh, Wisconsin, USA
Distance from station: SW 49mi, 78km
Updated: 08/22/2017 6:53pm
Partly cloudy
Partly cloudy
 Wind from WNW
Wind: WNW 12 mph , 19 km/h
Temperature: 70°F , 21°C
Dew Point: 48°F , 9°C
Humidity: 46%
Barometer: 29.93 inHg , 1013.5 hPa
Clouds: Partly cloudy
Visibility: 10 miles , 16 km
Cloud details: Few Clouds 7000 ft
Partly cloudy 9000 ft
2017/08/22 23:53 KOSH 222353Z 29010KT 10SM FEW070 SCT090 21/09 A2993 RMK AO2 SLP125 T02060094 10233 20206 53005